createdAt,value
2023-02-02T00:00:07.158Z,80.27
2023-02-02T00:08:51.032Z,80.10
2023-02-02T00:17:14.248Z,80.16
2023-02-02T00:25:37.177Z,80.12
2023-02-02T00:34:00.671Z,80.05
2023-02-02T00:42:24.878Z,80.10
2023-02-02T00:50:47.901Z,79.91
2023-02-02T00:59:10.874Z,80.16
2023-02-02T01:07:33.776Z,80.27
2023-02-02T01:15:58.381Z,80.37
2023-02-02T01:24:22.263Z,80.22
2023-02-02T01:32:45.150Z,80.34
2023-02-02T01:41:10.840Z,80.56
2023-02-02T01:49:34.253Z,80.78
2023-02-02T01:58:09.012Z,80.74
2023-02-02T02:06:32.232Z,80.87
2023-02-02T02:15:15.736Z,81.08
2023-02-02T02:24:19.467Z,80.76
2023-02-02T02:32:54.901Z,80.95
2023-02-02T02:41:25.585Z,81.10
2023-02-02T02:49:49.482Z,81.14
2023-02-02T02:58:32.799Z,80.94
2023-02-02T03:07:05.932Z,81.01
2023-02-02T03:15:28.872Z,80.93
2023-02-02T03:23:51.864Z,80.92
2023-02-02T03:32:14.763Z,81.12
2023-02-02T03:40:37.696Z,81.11
2023-02-02T03:49:02.362Z,81.26
2023-02-02T03:57:25.381Z,81.09
2023-02-02T04:05:51.511Z,80.99
2023-02-02T04:14:14.556Z,81.24
2023-02-02T04:22:37.561Z,81.28
2023-02-02T04:31:00.662Z,81.46
2023-02-02T04:39:23.795Z,81.28
2023-02-02T04:47:46.758Z,81.41
2023-02-02T04:56:13.763Z,81.22
2023-02-02T05:04:36.898Z,81.58
2023-02-02T05:13:00.048Z,81.75
2023-02-02T05:21:23.483Z,81.54
2023-02-02T05:29:48.421Z,81.55
2023-02-02T05:38:11.361Z,81.54
2023-02-02T05:46:34.611Z,81.67
2023-02-02T05:54:57.650Z,81.77
2023-02-02T06:03:21.739Z,81.59
2023-02-02T06:11:45.431Z,81.75
2023-02-02T06:20:08.943Z,81.73
2023-02-02T06:28:32.119Z,81.70
2023-02-02T06:36:55.105Z,81.54
2023-02-02T06:45:18.052Z,81.50
2023-02-02T06:53:41.038Z,81.90
2023-02-02T07:02:04.035Z,81.93
2023-02-02T07:11:11.111Z,81.92
2023-02-02T07:19:09.773Z,81.93
2023-02-02T07:27:33.392Z,81.91
2023-02-02T07:35:56.351Z,81.87
2023-02-02T07:44:19.305Z,81.73
2023-02-02T07:52:42.776Z,81.92
2023-02-02T08:01:07.654Z,81.85
2023-02-02T08:09:33.312Z,81.89
2023-02-02T08:17:56.247Z,82.09
2023-02-02T08:26:23.484Z,82.06
2023-02-02T08:34:49.088Z,81.88
2023-02-02T08:43:12.061Z,81.93
2023-02-02T08:51:40.597Z,81.85
2023-02-02T09:00:07.324Z,81.78
2023-02-02T09:08:30.287Z,81.95
2023-02-02T09:16:53.258Z,81.83
2023-02-02T09:25:16.504Z,81.89
2023-02-02T09:33:40.850Z,82.11
2023-02-02T09:42:35.081Z,82.20
2023-02-02T09:51:06.422Z,81.93
2023-02-02T09:59:35.862Z,82.07
2023-02-02T10:08:05.743Z,82.28
2023-02-02T10:16:30.007Z,82.24
2023-02-02T10:24:53.085Z,82.15
2023-02-02T10:33:39.455Z,82.26
2023-02-02T10:42:22.779Z,82.35
2023-02-02T10:50:58.604Z,82.36
2023-02-02T10:59:30.643Z,82.08
2023-02-02T11:07:54.477Z,82.33
2023-02-02T11:16:17.478Z,82.29
2023-02-02T11:24:50.142Z,82.15
2023-02-02T11:33:34.963Z,82.20
2023-02-02T11:42:08.153Z,82.26
2023-02-02T11:50:31.774Z,82.25
2023-02-02T11:58:59.296Z,82.10
2023-02-02T12:07:22.100Z,82.23
2023-02-02T12:16:15.829Z,82.28
2023-02-02T12:25:19.404Z,81.99
2023-02-02T12:33:59.880Z,82.14
2023-02-02T12:42:34.049Z,82.35
2023-02-02T12:51:19.061Z,82.33
2023-02-02T13:00:04.844Z,82.34
2023-02-02T13:08:37.933Z,82.11
2023-02-02T13:17:09.856Z,82.06
2023-02-02T13:25:42.478Z,82.05
2023-02-02T13:34:14.900Z,82.22
2023-02-02T13:42:52.527Z,82.05
2023-02-02T13:51:24.630Z,82.06
2023-02-02T13:59:57.289Z,81.90
2023-02-02T14:08:25.855Z,82.17
2023-02-02T14:16:50.772Z,82.16
2023-02-02T14:25:29.241Z,81.88
2023-02-02T14:33:52.162Z,82.00
2023-02-02T14:42:56.914Z,81.72
2023-02-02T14:51:26.714Z,82.07
2023-02-02T14:59:50.138Z,82.08
2023-02-02T15:08:22.036Z,81.96
2023-02-02T15:16:46.456Z,82.08
2023-02-02T15:25:36.048Z,82.07
2023-02-02T15:34:02.776Z,82.04
2023-02-02T15:42:53.353Z,81.88
2023-02-02T15:51:17.806Z,81.94
2023-02-02T15:59:42.842Z,81.80
2023-02-02T16:08:13.343Z,81.86
2023-02-02T16:16:39.912Z,82.00
2023-02-02T16:25:09.907Z,81.86
2023-02-02T16:33:40.144Z,81.89
2023-02-02T16:42:23.100Z,81.85
2023-02-02T16:50:49.574Z,81.78
2023-02-02T16:59:38.004Z,81.75
2023-02-02T17:08:11.010Z,81.63
2023-02-02T17:16:34.070Z,81.61
2023-02-02T17:24:59.627Z,81.70
2023-02-02T17:33:24.891Z,81.43
2023-02-02T17:41:48.877Z,81.43
2023-02-02T17:50:12.774Z,81.39
2023-02-02T17:58:37.226Z,81.41
2023-02-02T18:07:01.771Z,81.47
2023-02-02T18:15:25.013Z,81.62
2023-02-02T18:23:49.417Z,81.78
2023-02-02T18:32:12.641Z,81.60
2023-02-02T18:40:35.570Z,81.54
2023-02-02T18:48:58.570Z,81.37
2023-02-02T18:57:22.263Z,81.54
2023-02-02T19:06:03.695Z,81.57
2023-02-02T19:14:32.182Z,81.59
2023-02-02T19:23:03.908Z,81.56
2023-02-02T19:31:28.287Z,81.62
2023-02-02T19:40:20.328Z,81.39
2023-02-02T19:48:43.310Z,81.69
2023-02-02T19:57:06.133Z,81.68
2023-02-02T20:05:39.836Z,81.66
2023-02-02T20:14:19.033Z,81.53
2023-02-02T20:22:42.011Z,81.47
2023-02-02T20:31:06.010Z,81.66
2023-02-02T20:39:40.185Z,81.51
2023-02-02T20:48:03.107Z,81.70
2023-02-02T20:56:26.094Z,81.60
2023-02-02T21:04:50.842Z,81.65
2023-02-02T21:13:13.942Z,81.35
2023-02-02T21:21:36.902Z,81.41
2023-02-02T21:29:59.820Z,81.30
2023-02-02T21:38:22.753Z,81.50
2023-02-02T21:46:49.137Z,81.37
2023-02-02T21:55:21.389Z,81.37
2023-02-02T22:03:46.925Z,81.12
2023-02-02T22:12:36.212Z,81.47
2023-02-02T22:20:59.631Z,81.09
2023-02-02T22:29:24.609Z,81.13
2023-02-02T22:37:47.776Z,81.09
2023-02-02T22:46:10.754Z,81.11
2023-02-02T22:54:33.713Z,80.89
2023-02-02T23:02:57.391Z,80.99
2023-02-02T23:11:20.375Z,80.92
2023-02-02T23:19:43.357Z,80.93
2023-02-02T23:28:07.837Z,80.91
2023-02-02T23:36:30.754Z,80.76
2023-02-02T23:44:53.773Z,80.87
2023-02-02T23:53:17.023Z,80.88
